Time;durP1;ratioP1;P1;durP2;ratioP2;P2;SDS_P1;SDS_P2;PMS_P1;PMS_P2;Temp;Humidity;BMP_temperature;BMP_pressure;BME280_temperature;BME280_humidity;BME280_pressure;Samples;Min_cycle;Max_cycle;Signal;HPM_P1;HPM_P2
2023/04/13 00:01:24;;;;;;;18.98;13.05;;;;;;;8.35;74.24;98275.06;5051486;28;20021;-77
2023/04/13 00:03:49;;;;;;;23.15;13.18;;;;;;;8.17;73.96;98253.63;5051245;28;20025;-77
2023/04/13 00:06:15;;;;;;;18.23;12.90;;;;;;;8.24;74.01;98236.78;5051332;28;20075;-77
2023/04/13 00:08:42;;;;;;;18.85;12.73;;;;;;;8.45;73.68;98265.00;5051321;28;20027;-77
2023/04/13 00:11:07;;;;;;;21.00;12.20;;;;;;;8.50;73.18;98273.34;5051472;28;20108;-77
2023/04/13 00:13:39;;;;;;;22.38;13.18;;;;;;;8.45;73.45;98259.81;5051344;28;20453;-77
2023/04/13 00:16:06;;;;;;;19.02;13.15;;;;;;;8.39;73.09;98248.03;5051200;28;20036;-77
2023/04/13 00:18:32;;;;;;;21.10;12.55;;;;;;;8.42;73.11;98270.34;5051212;28;20078;-77
2023/04/13 00:20:58;;;;;;;20.05;13.20;;;;;;;8.17;73.45;98251.03;5051031;28;20108;-77
2023/04/13 00:23:24;;;;;;;19.80;13.38;;;;;;;8.22;73.64;98248.19;5050053;28;20021;-77
2023/04/13 00:25:50;;;;;;;22.35;14.07;;;;;;;8.31;73.41;98276.16;5050896;28;20024;-77
2023/04/13 00:28:17;;;;;;;21.63;14.63;;;;;;;8.21;73.62;98259.47;5051356;28;20112;-77
2023/04/13 00:30:42;;;;;;;22.08;13.95;;;;;;;8.24;73.68;98273.09;5051145;28;20033;-77
2023/04/13 00:33:08;;;;;;;20.50;13.45;;;;;;;8.23;73.62;98280.97;5054405;28;20028;-77
2023/04/13 00:35:33;;;;;;;24.58;14.40;;;;;;;8.19;73.84;98282.09;5054907;28;20456;-77
2023/04/13 00:38:01;;;;;;;19.27;12.77;;;;;;;8.04;74.02;98285.56;5054645;28;20055;-77
2023/04/13 00:40:27;;;;;;;22.98;13.52;;;;;;;8.07;74.31;98311.31;5054762;28;20024;-77
2023/04/13 00:42:52;;;;;;;23.98;14.57;;;;;;;8.07;74.41;98311.31;5054487;28;20025;-77
2023/04/13 00:45:18;;;;;;;20.20;13.25;;;;;;;8.02;74.60;98316.78;5054503;28;20024;-77
2023/04/13 00:47:46;;;;;;;20.17;13.70;;;;;;;7.99;74.88;98303.97;5054154;28;20468;-77
2023/04/13 00:50:12;;;;;;;23.02;15.20;;;;;;;7.93;75.01;98305.16;5054471;28;20432;-77
2023/04/13 00:52:38;;;;;;;23.00;14.20;;;;;;;7.91;75.11;98311.34;5054596;28;20064;-77
2023/04/13 00:55:05;;;;;;;26.45;15.52;;;;;;;7.92;75.50;98313.00;5054263;28;20067;-77
2023/04/13 00:57:32;;;;;;;24.48;14.63;;;;;;;8.02;75.00;98305.56;5054633;28;20082;-76
2023/04/13 00:59:58;;;;;;;20.23;14.32;;;;;;;7.87;75.11;98281.34;5054480;28;20027;-77
2023/04/13 01:02:25;;;;;;;22.52;13.40;;;;;;;7.84;75.01;98277.19;5054150;28;20021;-76
2023/04/13 01:04:53;;;;;;;26.58;15.02;;;;;;;8.05;74.95;98305.38;5054127;28;20024;-76
2023/04/13 01:07:59;;;;;;;22.13;14.05;;;;;;;8.13;75.16;98305.75;5054282;28;20029;-76
2023/04/13 01:10:32;;;;;;;20.75;13.52;;;;;;;8.05;74.91;98282.03;5054101;28;20024;-76
2023/04/13 01:13:16;;;;;;;21.73;15.32;;;;;;;8.13;74.79;98303.16;5053672;28;20056;-77
2023/04/13 01:15:51;;;;;;;28.65;16.92;;;;;;;8.17;74.91;98295.13;5054175;28;20059;-76
2023/04/13 01:18:17;;;;;;;21.13;15.18;;;;;;;8.20;74.49;98300.13;5053976;28;20037;-76
2023/04/13 01:20:45;;;;;;;20.48;13.98;;;;;;;8.16;74.27;98290.88;5053994;28;20055;-76
2023/04/13 01:23:46;;;;;;;21.05;13.30;;;;;;;7.71;74.79;98235.59;5053748;28;20033;-76
2023/04/13 01:26:13;;;;;;;23.48;14.48;;;;;;;8.02;74.66;98279.63;5053972;28;20606;-77
2023/04/13 01:28:39;;;;;;;21.50;13.75;;;;;;;8.05;74.62;98271.66;5053650;28;20052;-76
2023/04/13 01:31:10;;;;;;;22.10;13.48;;;;;;;8.02;74.03;98264.91;5053434;28;20033;-76
2023/04/13 01:33:37;;;;;;;22.40;14.63;;;;;;;8.15;74.11;98275.41;5053546;28;20029;-76
2023/04/13 01:36:03;;;;;;;19.25;14.20;;;;;;;8.01;73.68;98258.06;5053405;28;20432;-76
2023/04/13 01:38:28;;;;;;;21.17;14.73;;;;;;;8.04;74.15;98257.88;5053793;28;20056;-77
2023/04/13 01:40:54;;;;;;;20.33;13.52;;;;;;;8.18;73.68;98272.63;5053475;28;20041;-76
2023/04/13 01:43:20;;;;;;;19.70;12.35;;;;;;;8.26;73.14;98280.81;5052534;28;20025;-76
2023/04/13 01:45:55;;;;;;;19.63;12.70;;;;;;;8.22;72.61;98281.91;5053446;28;20510;-76
2023/04/13 01:48:28;;;;;;;17.13;13.02;;;;;;;8.16;72.46;98272.72;5053247;28;20473;-76
2023/04/13 01:51:02;;;;;;;18.17;12.35;;;;;;;8.19;72.30;98267.34;5053309;28;20029;-76
2023/04/13 01:53:34;;;;;;;19.58;13.68;;;;;;;8.47;72.17;98284.75;5053393;28;20049;-76
2023/04/13 01:56:03;;;;;;;16.60;12.10;;;;;;;8.47;72.16;98297.72;5053041;28;20057;-76
2023/04/13 01:58:32;;;;;;;20.63;13.15;;;;;;;8.42;72.10;98302.31;5053131;28;20025;-76
2023/04/13 02:00:58;;;;;;;21.80;15.80;;;;;;;8.46;71.70;98293.44;5052974;28;20025;-77
2023/04/13 02:03:23;;;;;;;18.70;12.15;;;;;;;8.44;72.02;98278.91;5053065;28;20028;-77
2023/04/13 02:05:49;;;;;;;19.05;13.35;;;;;;;8.58;71.96;98289.28;5052816;28;20050;-77
2023/04/13 02:08:17;;;;;;;19.50;12.85;;;;;;;8.44;72.17;98276.31;5053008;28;20090;-77
2023/04/13 02:10:42;;;;;;;17.70;12.65;;;;;;;8.36;71.84;98276.72;5053216;28;20484;-77
2023/04/13 02:13:10;;;;;;;19.55;13.27;;;;;;;8.50;71.83;98299.28;5052572;28;20060;-77
2023/04/13 02:15:38;;;;;;;18.30;12.35;;;;;;;8.23;72.33;98268.84;5052981;28;20024;-77
2023/04/13 02:18:04;;;;;;;22.10;12.98;;;;;;;8.41;72.40;98287.69;5052615;28;20388;-77
2023/04/13 02:20:33;;;;;;;21.58;13.40;;;;;;;8.50;72.68;98302.69;5052886;28;20057;-77
2023/04/13 02:22:59;;;;;;;21.38;14.32;;;;;;;8.53;72.84;98293.91;5052462;28;20121;-77
2023/04/13 02:25:26;;;;;;;20.13;13.00;;;;;;;8.42;72.54;98273.78;5052699;28;20528;-77
2023/04/13 02:27:52;;;;;;;18.98;13.20;;;;;;;8.58;72.81;98280.66;5052309;28;20036;-77
2023/04/13 02:30:18;;;;;;;21.85;13.55;;;;;;;8.64;72.84;98293.28;5052739;28;20052;-77
2023/04/13 02:32:48;;;;;;;19.60;12.93;;;;;;;8.63;72.75;98287.22;5052701;28;20092;-77
2023/04/13 02:35:14;;;;;;;19.15;13.68;;;;;;;8.55;72.79;98275.66;5052260;28;20036;-77
2023/04/13 02:37:40;;;;;;;19.80;13.45;;;;;;;8.65;72.83;98298.38;5051078;28;20389;-77
2023/04/13 02:40:08;;;;;;;21.95;14.02;;;;;;;8.65;72.69;98297.53;5052126;28;20029;-77
2023/04/13 02:42:33;;;;;;;22.95;14.55;;;;;;;8.70;72.88;98298.09;5052520;28;20071;-77
2023/04/13 02:44:58;;;;;;;17.52;12.73;;;;;;;8.66;72.91;98299.19;5052119;28;20028;-77
2023/04/13 02:47:25;;;;;;;20.77;14.15;;;;;;;8.70;72.85;98292.91;5051069;28;20568;-77
2023/04/13 02:49:51;;;;;;;20.08;12.48;;;;;;;8.68;72.93;98303.38;5052230;28;20037;-77
2023/04/13 02:52:16;;;;;;;18.60;13.07;;;;;;;8.69;72.92;98299.03;5052230;28;20036;-77
2023/04/13 02:54:42;;;;;;;18.02;12.98;;;;;;;8.77;73.01;98299.41;5051836;28;20025;-77
2023/04/13 02:57:09;;;;;;;18.27;12.90;;;;;;;8.82;72.95;98302.53;5051811;28;20032;-77
2023/04/13 02:59:35;;;;;;;18.55;12.93;;;;;;;8.91;72.92;98306.34;5052407;28;20435;-76
2023/04/13 03:02:00;;;;;;;16.95;12.82;;;;;;;8.84;72.85;98279.06;5051987;28;20021;-76
2023/04/13 03:04:26;;;;;;;17.38;13.05;;;;;;;8.82;72.98;98279.19;5052171;28;20064;-76
2023/04/13 03:06:53;;;;;;;19.40;12.85;;;;;;;8.65;72.98;98261.22;5051827;28;20024;-77
2023/04/13 03:09:19;;;;;;;20.70;14.48;;;;;;;8.69;73.14;98257.50;5051903;28;20129;-77
2023/04/13 03:11:44;;;;;;;23.05;13.60;;;;;;;8.82;73.99;98280.94;5051854;28;20025;-77
2023/04/13 03:14:19;;;;;;;20.88;14.45;;;;;;;8.87;74.16;98294.47;5052231;28;20032;-77
2023/04/13 03:16:45;;;;;;;18.90;12.65;;;;;;;8.84;74.51;98279.06;5052115;28;20025;-77
2023/04/13 03:19:10;;;;;;;18.10;12.73;;;;;;;8.95;74.14;98294.84;5051696;28;20094;-77
2023/04/13 03:21:36;;;;;;;20.35;13.45;;;;;;;8.85;74.22;98279.00;5051746;28;20053;-76
2023/04/13 03:24:01;;;;;;;19.25;13.65;;;;;;;9.05;73.89;98305.47;5051575;28;20084;-77
2023/04/13 03:26:26;;;;;;;19.73;13.77;;;;;;;9.02;73.89;98303.06;5051769;28;20522;-77
2023/04/13 03:28:52;;;;;;;18.65;12.35;;;;;;;9.02;73.97;98297.88;5051823;28;20049;-77
2023/04/13 03:31:17;;;;;;;20.75;13.95;;;;;;;8.86;74.52;98314.41;5051685;28;20029;-77
2023/04/13 03:33:43;;;;;;;20.35;13.38;;;;;;;8.85;74.97;98301.50;5051836;28;20029;-76
2023/04/13 03:36:09;;;;;;;18.92;13.88;;;;;;;8.79;74.97;98299.28;5051546;28;20021;-77
2023/04/13 03:38:35;;;;;;;20.95;13.90;;;;;;;8.60;75.17;98282.25;5051676;28;20025;-76
2023/04/13 03:41:00;;;;;;;19.73;14.82;;;;;;;8.75;75.01;98307.25;5051675;28;20036;-77
2023/04/13 03:43:26;;;;;;;23.88;16.15;;;;;;;8.73;75.47;98316.09;5051802;28;20028;-76
2023/04/13 03:45:51;;;;;;;24.17;15.57;;;;;;;8.65;75.83;98305.31;5051759;28;20107;-76
2023/04/13 03:48:17;;;;;;;21.00;15.30;;;;;;;8.52;76.02;98281.88;5051433;28;20061;-77
2023/04/13 03:50:42;;;;;;;23.55;14.30;;;;;;;8.48;76.24;98285.56;5051554;28;20029;-77
2023/04/13 03:53:07;;;;;;;21.90;14.45;;;;;;;8.48;75.84;98280.38;5051191;28;20064;-77
2023/04/13 03:55:33;;;;;;;20.75;15.20;;;;;;;8.58;76.18;98312.63;5051493;28;20038;-77
2023/04/13 03:57:58;;;;;;;23.83;16.17;;;;;;;8.57;76.39;98298.00;5051448;28;20465;-77
2023/04/13 04:00:23;;;;;;;23.10;15.48;;;;;;;8.50;76.30;98304.47;5051521;28;20021;-77
2023/04/13 04:02:49;;;;;;;26.77;16.60;;;;;;;8.58;76.65;98319.59;5051472;28;20403;-77
2023/04/13 04:05:15;;;;;;;24.33;16.85;;;;;;;8.62;77.03;98321.91;5051226;28;20539;-77
2023/04/13 04:07:41;;;;;;;24.83;15.45;;;;;;;8.54;77.40;98329.31;5054168;28;20057;-77
2023/04/13 04:10:07;;;;;;;24.27;16.33;;;;;;;8.50;77.28;98307.06;5055233;28;20057;-77
2023/04/13 04:12:33;;;;;;;29.95;17.42;;;;;;;8.60;77.72;98316.00;5055716;28;20441;-77
2023/04/13 04:14:58;;;;;;;25.42;17.63;;;;;;;8.67;77.55;98330.25;5054953;28;20053;-77
2023/04/13 04:17:23;;;;;;;29.75;19.58;;;;;;;8.56;77.84;98304.13;5055192;28;20079;-77
2023/04/13 04:19:49;;;;;;;28.67;19.40;;;;;;;8.58;77.96;98325.63;5055188;28;20021;-76
2023/04/13 04:22:14;;;;;;;27.55;18.33;;;;;;;8.44;78.00;98308.28;5054708;28;20067;-77
2023/04/13 04:24:41;;;;;;;28.58;18.17;;;;;;;8.45;78.23;98316.88;5054874;28;20017;-75
2023/04/13 04:27:06;;;;;;;30.35;19.75;;;;;;;8.53;78.33;98334.59;5054925;28;20025;-76
2023/04/13 04:29:35;;;;;;;26.90;19.23;;;;;;;8.44;78.43;98325.59;5054716;28;20574;-75
2023/04/13 04:32:01;;;;;;;31.85;21.85;;;;;;;8.45;78.67;98340.25;5054595;28;20579;-75
2023/04/13 04:34:29;;;;;;;28.15;19.45;;;;;;;8.43;78.63;98327.38;5054677;28;20049;-75
2023/04/13 04:36:54;;;;;;;33.50;21.95;;;;;;;8.61;78.51;98353.16;5054739;28;20100;-75
2023/04/13 04:39:21;;;;;;;31.58;21.80;;;;;;;8.66;78.92;98359.72;5054330;28;20119;-75
2023/04/13 04:42:01;;;;;;;32.53;21.90;;;;;;;8.64;78.79;98365.97;5054642;28;20038;-75
2023/04/13 04:44:29;;;;;;;30.17;21.08;;;;;;;8.52;78.80;98351.94;5054686;28;20029;-75
2023/04/13 04:46:56;;;;;;;33.05;23.67;;;;;;;8.47;79.01;98341.00;5054599;28;20025;-75
2023/04/13 04:49:21;;;;;;;35.15;20.88;;;;;;;8.47;78.41;98354.81;5054240;28;20033;-75
2023/04/13 04:51:50;;;;;;;34.75;22.55;;;;;;;8.30;78.79;98335.91;5054356;28;20025;-76
2023/04/13 04:54:16;;;;;;;34.17;22.35;;;;;;;8.58;78.89;98384.47;5054252;28;20036;-75
2023/04/13 04:56:41;;;;;;;31.83;22.67;;;;;;;8.53;79.20;98376.97;5054314;28;20029;-75
2023/04/13 04:59:07;;;;;;;34.05;20.50;;;;;;;8.52;79.16;98356.28;5054093;28;20025;-76
2023/04/13 05:01:33;;;;;;;34.75;24.15;;;;;;;8.48;79.02;98360.81;5054194;28;20021;-76
2023/04/13 05:04:00;;;;;;;36.47;23.92;;;;;;;8.52;79.12;98369.28;5054065;28;20384;-76
2023/04/13 05:06:26;;;;;;;34.80;23.27;;;;;;;8.58;79.16;98374.09;5054474;28;20360;-76
2023/04/13 05:08:51;;;;;;;40.28;25.63;;;;;;;8.62;79.13;98386.78;5054159;28;20159;-76
2023/04/13 05:11:17;;;;;;;36.80;24.38;;;;;;;8.54;79.12;98370.00;5053860;28;20074;-75
2023/04/13 05:13:42;;;;;;;33.97;22.33;;;;;;;8.67;79.36;98379.56;5054133;28;20472;-75
2023/04/13 05:16:09;;;;;;;31.88;21.77;;;;;;;8.79;78.73;98372.81;5053809;28;20477;-75
2023/04/13 05:18:43;;;;;;;35.17;22.83;;;;;;;8.72;78.64;98376.69;5053668;28;20538;-76
2023/04/13 05:21:09;;;;;;;32.05;21.70;;;;;;;8.85;78.25;98395.84;5054058;28;20048;-75
2023/04/13 05:23:34;;;;;;;32.80;23.00;;;;;;;8.63;78.62;98382.44;5053852;28;20025;-75
2023/04/13 05:26:00;;;;;;;35.42;22.52;;;;;;;8.79;78.65;98397.94;5053825;28;20469;-77
2023/04/13 05:28:26;;;;;;;34.72;22.13;;;;;;;8.65;78.68;98376.25;5053733;28;20029;-77
2023/04/13 05:30:51;;;;;;;32.28;23.70;;;;;;;8.79;78.86;98392.75;5053767;28;20126;-76
2023/04/13 05:33:16;;;;;;;30.13;21.27;;;;;;;8.71;78.83;98380.22;5053628;28;20500;-76
2023/04/13 05:35:42;;;;;;;37.65;22.27;;;;;;;8.86;78.93;98394.06;5053781;28;20078;-78
2023/04/13 05:38:08;;;;;;;32.67;22.85;;;;;;;8.94;78.65;98392.69;5053281;28;20476;-76
2023/04/13 05:40:34;;;;;;;36.33;22.65;;;;;;;8.96;78.37;98392.56;5053523;28;20095;-76
2023/04/13 05:42:59;;;;;;;32.90;22.60;;;;;;;8.81;78.59;98364.97;5053462;28;20082;-76
2023/04/13 05:45:25;;;;;;;32.08;20.58;;;;;;;8.73;78.69;98375.78;5053274;28;20028;-76
2023/04/13 05:47:51;;;;;;;32.45;21.90;;;;;;;8.71;78.84;98368.06;5053247;28;20091;-76
2023/04/13 05:50:16;;;;;;;29.20;21.38;;;;;;;8.81;78.45;98372.75;5053228;28;20118;-76
2023/04/13 05:52:42;;;;;;;33.33;21.25;;;;;;;8.89;78.52;98388.66;5053248;28;20044;-77
2023/04/13 05:55:08;;;;;;;38.60;22.13;;;;;;;8.81;78.71;98396.94;5052908;28;20075;-77
2023/04/13 05:57:33;;;;;;;31.35;21.42;;;;;;;8.80;78.74;98395.25;5053092;28;20021;-76
2023/04/13 05:59:58;;;;;;;30.15;21.33;;;;;;;8.88;78.40;98406.00;5051727;28;20443;-76
2023/04/13 06:02:26;;;;;;;31.85;21.92;;;;;;;8.88;78.36;98400.00;5052581;28;20450;-77
2023/04/13 06:04:53;;;;;;;33.80;23.20;;;;;;;8.81;78.65;98388.31;5053028;28;20104;-77
2023/04/13 06:07:19;;;;;;;34.53;22.48;;;;;;;8.85;78.73;98382.00;5052798;28;20037;-77
2023/04/13 06:09:45;;;;;;;30.23;21.23;;;;;;;9.03;78.82;98400.84;5052712;28;20067;-77
2023/04/13 06:12:10;;;;;;;37.10;25.30;;;;;;;9.05;78.43;98392.03;5052656;28;20029;-77
2023/04/13 06:14:36;;;;;;;31.52;22.08;;;;;;;9.18;77.82;98415.50;5052952;28;20078;-77
2023/04/13 06:17:01;;;;;;;29.92;21.75;;;;;;;9.19;78.08;98410.22;5052589;28;20104;-77
2023/04/13 06:19:27;;;;;;;32.72;21.85;;;;;;;9.19;77.69;98393.81;5052755;28;20029;-77
2023/04/13 06:21:52;;;;;;;33.13;22.70;;;;;;;9.30;77.53;98401.75;5052808;28;20461;-76
2023/04/13 06:24:17;;;;;;;30.15;20.95;;;;;;;9.21;77.25;98376.34;5051332;28;20065;-78
2023/04/13 06:26:43;;;;;;;35.00;21.23;;;;;;;9.27;77.13;98407.16;5034449;28;20025;-77
2023/04/13 06:29:08;;;;;;;42.53;27.38;;;;;;;9.39;77.58;98439.34;5046250;28;20075;-77
2023/04/13 06:31:34;;;;;;;37.78;23.77;;;;;;;9.45;77.65;98444.16;5042610;28;20124;-77
2023/04/13 06:33:59;;;;;;;33.88;24.92;;;;;;;9.37;77.35;98420.41;5040655;28;20033;-78
2023/04/13 06:36:25;;;;;;;31.05;22.35;;;;;;;9.62;77.44;98449.16;5042806;28;20021;-77
2023/04/13 06:38:50;;;;;;;31.17;23.73;;;;;;;9.61;77.43;98439.72;5052297;28;20078;-77
2023/04/13 06:41:16;;;;;;;29.90;21.55;;;;;;;9.72;76.72;98450.25;5051947;28;20049;-77
2023/04/13 06:43:41;;;;;;;28.70;22.17;;;;;;;9.80;76.69;98454.16;5040894;28;20025;-77
2023/04/13 06:46:07;;;;;;;34.22;20.77;;;;;;;9.82;76.29;98439.28;5031652;28;20069;-77
2023/04/13 06:48:32;;;;;;;30.02;21.80;;;;;;;9.86;76.14;98444.22;5031785;28;20025;-77
2023/04/13 06:51:00;;;;;;;28.85;20.13;;;;;;;9.89;75.74;98440.56;5032353;28;20024;-78
2023/04/13 06:53:26;;;;;;;28.90;21.40;;;;;;;9.98;75.78;98448.63;5032434;28;20029;-77
2023/04/13 06:55:51;;;;;;;24.92;20.83;;;;;;;10.00;75.60;98448.53;5041251;28;20032;-77
2023/04/13 06:58:17;;;;;;;29.67;20.88;;;;;;;10.00;75.61;98454.56;5038844;28;20033;-74
2023/04/13 07:00:43;;;;;;;30.00;23.48;;;;;;;10.04;75.36;98468.22;5041155;28;20067;-75
2023/04/13 07:03:08;;;;;;;34.67;23.77;;;;;;;9.89;75.74;98449.19;5035562;28;20090;-75
2023/04/13 07:05:33;;;;;;;32.08;23.52;;;;;;;9.89;75.92;98456.16;5032137;28;20025;-75
2023/04/13 07:07:59;;;;;;;33.00;24.45;;;;;;;10.06;75.90;98478.53;5041045;28;20025;-75
2023/04/13 07:10:24;;;;;;;32.88;23.55;;;;;;;10.09;76.21;98484.38;5051862;28;20380;-76
2023/04/13 07:12:50;;;;;;;36.17;22.98;;;;;;;9.93;75.70;98447.25;5051776;28;20051;-75
2023/04/13 07:15:15;;;;;;;33.78;22.05;;;;;;;9.93;75.86;98455.88;5051518;28;20139;-77
2023/04/13 07:17:41;;;;;;;31.98;23.70;;;;;;;10.07;76.15;98472.38;5051869;28;20074;-75
2023/04/13 07:20:08;;;;;;;30.10;22.63;;;;;;;9.96;75.97;98453.09;5051801;28;20024;-74
2023/04/13 07:22:34;;;;;;;33.40;23.92;;;;;;;10.07;76.16;98469.78;5051859;28;20032;-75
2023/04/13 07:25:00;;;;;;;34.28;25.50;;;;;;;10.04;76.26;98462.19;5051290;28;20025;-76
2023/04/13 07:27:26;;;;;;;30.85;23.63;;;;;;;10.21;76.04;98481.00;5051560;28;20065;-75
2023/04/13 07:29:51;;;;;;;32.42;23.05;;;;;;;10.23;76.05;98480.88;5051740;28;20092;-76
2023/04/13 07:32:17;;;;;;;28.50;21.95;;;;;;;10.28;76.17;98478.88;5051642;28;20040;-75
2023/04/13 07:34:42;;;;;;;29.65;20.77;;;;;;;10.26;76.08;98474.69;5051966;28;20029;-76
2023/04/13 07:37:07;;;;;;;29.77;21.70;;;;;;;10.38;75.92;98498.16;5051571;28;20028;-76
2023/04/13 07:39:33;;;;;;;33.83;23.60;;;;;;;10.34;76.17;98490.66;5051817;28;20025;-75
2023/04/13 07:41:58;;;;;;;34.08;24.20;;;;;;;10.29;75.79;98490.94;5055090;28;20025;-75
2023/04/13 07:44:24;;;;;;;33.20;23.25;;;;;;;10.33;76.05;98495.03;5055461;28;20029;-76
2023/04/13 07:46:50;;;;;;;37.70;25.45;;;;;;;10.39;76.22;98501.59;5055932;28;20025;-76
2023/04/13 07:49:15;;;;;;;36.75;25.98;;;;;;;10.42;76.05;98498.81;5055864;28;20048;-75
2023/04/13 07:51:41;;;;;;;36.53;26.05;;;;;;;10.38;76.25;98490.34;5055675;28;20032;-75
2023/04/13 07:54:06;;;;;;;36.35;27.67;;;;;;;10.42;76.23;98496.19;5055614;28;20027;-75
2023/04/13 07:56:32;;;;;;;31.77;23.55;;;;;;;10.47;76.21;98492.34;5055348;28;20049;-76
2023/04/13 07:58:57;;;;;;;31.88;23.60;;;;;;;10.55;76.02;98502.28;5055433;28;20035;-75
2023/04/13 08:01:23;;;;;;;33.22;23.35;;;;;;;10.58;76.15;98496.88;5055374;28;20036;-74
2023/04/13 08:03:48;;;;;;;32.38;23.77;;;;;;;10.59;76.75;98484.69;5055738;28;20033;-74
2023/04/13 08:06:14;;;;;;;34.17;23.63;;;;;;;10.78;76.85;98503.38;5055023;28;20047;-75
2023/04/13 08:08:39;;;;;;;30.35;22.98;;;;;;;10.82;76.92;98499.63;5055356;28;20037;-75
2023/04/13 08:11:05;;;;;;;33.42;23.83;;;;;;;10.87;76.56;98510.59;5055167;28;20028;-74
2023/04/13 08:13:31;;;;;;;34.83;25.25;;;;;;;10.72;76.70;98491.59;5054929;28;20029;-75
2023/04/13 08:15:59;;;;;;;32.35;23.00;;;;;;;10.84;77.23;98520.38;5055019;28;20056;-74
2023/04/13 08:18:25;;;;;;;33.33;24.48;;;;;;;10.71;77.68;98495.16;5054948;28;20036;-74
2023/04/13 08:20:51;;;;;;;32.20;23.50;;;;;;;10.84;78.21;98523.00;5055134;28;20025;-74
2023/04/13 08:23:17;;;;;;;36.95;24.77;;;;;;;10.82;78.63;98522.25;5054708;28;20032;-74
2023/04/13 08:25:43;;;;;;;33.20;24.63;;;;;;;10.71;79.39;98515.16;5054897;28;20024;-75
2023/04/13 08:28:09;;;;;;;31.52;23.85;;;;;;;10.44;80.24;98478.69;5054836;28;20039;-74
2023/04/13 08:30:34;;;;;;;33.13;24.88;;;;;;;10.75;81.50;98537.44;5054633;28;20128;-74
2023/04/13 08:33:01;;;;;;;33.45;27.77;;;;;;;10.57;82.22;98515.19;5054879;28;20530;-74
2023/04/13 08:35:26;;;;;;;34.42;28.02;;;;;;;10.68;83.52;98546.59;5037552;28;20389;-75
2023/04/13 08:37:52;;;;;;;33.20;27.05;;;;;;;10.55;84.01;98530.09;5034852;28;20029;-75
2023/04/13 08:40:19;;;;;;;35.08;25.90;;;;;;;10.61;84.69;98540.94;5034557;28;20036;-74
2023/04/13 08:42:46;;;;;;;35.80;25.23;;;;;;;10.61;85.40;98537.50;5034568;28;20055;-75
2023/04/13 08:45:13;;;;;;;34.05;24.58;;;;;;;10.52;85.67;98515.50;5034628;28;20459;-74
2023/04/13 08:47:39;;;;;;;35.50;24.98;;;;;;;10.67;85.99;98534.50;5034728;28;20461;-75
2023/04/13 08:50:06;;;;;;;33.20;25.95;;;;;;;10.60;86.37;98507.19;5034646;28;20033;-74
2023/04/13 08:52:34;;;;;;;33.22;23.02;;;;;;;10.66;86.75;98507.63;5033670;28;20116;-75
2023/04/13 08:55:02;;;;;;;34.03;25.90;;;;;;;10.82;87.03;98504.84;5034438;28;20029;-75
2023/04/13 08:57:31;;;;;;;31.75;24.88;;;;;;;11.02;87.60;98508.75;5034131;28;20017;-74
2023/04/13 08:59:58;;;;;;;31.95;25.45;;;;;;;11.08;88.03;98500.53;5034581;28;20025;-74
2023/04/13 09:02:28;;;;;;;32.83;25.50;;;;;;;11.27;88.28;98522.75;5032848;28;20553;-74
2023/04/13 09:04:56;;;;;;;32.47;23.80;;;;;;;11.30;88.45;98509.50;5034389;28;20068;-75
2023/04/13 09:07:27;;;;;;;38.10;26.30;;;;;;;11.24;88.54;98497.69;5034142;28;20026;-74
2023/04/13 09:09:56;;;;;;;38.13;25.75;;;;;;;11.29;88.88;98490.41;5034345;28;20087;-75
2023/04/13 09:12:23;;;;;;;40.75;27.63;;;;;;;11.40;88.70;98495.72;5034197;28;20052;-75
2023/04/13 09:14:48;;;;;;;43.97;28.80;;;;;;;11.58;88.47;98514.47;5034249;28;20079;-75
2023/04/13 09:17:33;;;;;;;41.20;29.27;;;;;;;11.65;88.28;98499.25;5033830;28;20025;-75
2023/04/13 09:20:16;;;;;;;38.17;28.35;;;;;;;11.83;87.78;98492.78;5034017;28;20473;-74
2023/04/13 09:22:42;;;;;;;34.55;26.33;;;;;;;12.13;87.77;98512.44;5034107;28;20032;-74
2023/04/13 09:25:28;;;;;;;32.75;22.90;;;;;;;12.21;87.26;98521.38;5033901;28;20037;-74
2023/04/13 09:27:54;;;;;;;26.15;18.88;;;;;;;12.26;86.88;98522.84;5033557;28;20044;-75
2023/04/13 09:30:26;;;;;;;27.85;18.33;;;;;;;12.20;88.33;98522.34;5033465;28;20052;-74
2023/04/13 09:33:04;;;;;;;25.00;17.65;;;;;;;12.04;87.98;98494.81;5033626;28;20032;-74
2023/04/13 09:35:31;;;;;;;21.02;15.00;;;;;;;12.19;88.18;98525.06;5051268;28;20108;-75
2023/04/13 09:37:58;;;;;;;19.05;14.93;;;;;;;12.21;88.06;98520.56;5053172;28;20021;-75
2023/04/13 09:40:23;;;;;;;19.10;14.48;;;;;;;12.17;88.41;98514.72;5053171;28;20024;-74
2023/04/13 09:42:56;;;;;;;16.83;12.82;;;;;;;12.12;88.64;98497.72;5053303;28;20530;-74
2023/04/13 09:45:22;;;;;;;15.32;12.35;;;;;;;12.21;88.21;98495.28;5053099;28;20442;-74
2023/04/13 09:47:47;;;;;;;17.77;11.95;;;;;;;12.29;87.94;98489.50;5053567;28;20112;-74
2023/04/13 09:50:17;;;;;;;17.60;12.95;;;;;;;12.52;87.85;98519.22;5053502;28;20068;-74
2023/04/13 09:52:44;;;;;;;13.55;11.18;;;;;;;12.47;87.89;98509.09;5053635;28;20349;-74
2023/04/13 09:55:16;;;;;;;12.88;9.75;;;;;;;12.58;87.14;98523.97;5052987;28;20480;-74
2023/04/13 09:57:42;;;;;;;13.13;9.98;;;;;;;12.52;87.49;98511.38;5053206;28;20386;-75
2023/04/13 10:00:13;;;;;;;12.45;9.52;;;;;;;12.53;86.32;98515.63;5053128;28;20029;-74
2023/04/13 10:02:40;;;;;;;11.93;9.25;;;;;;;12.50;86.75;98518.47;5052950;28;20031;-74
2023/04/13 10:05:08;;;;;;;13.45;9.43;;;;;;;12.39;86.54;98513.22;5052185;28;20043;-74
2023/04/13 10:07:35;;;;;;;12.73;8.50;;;;;;;12.41;86.79;98527.81;5052735;28;20025;-74
2023/04/13 10:10:02;;;;;;;14.45;9.63;;;;;;;12.10;87.71;98486.56;5053007;28;20477;-74
2023/04/13 10:12:30;;;;;;;14.65;8.77;;;;;;;12.29;87.85;98527.84;5052902;28;20514;-75
2023/04/13 10:15:09;;;;;;;11.13;8.55;;;;;;;12.32;87.78;98543.31;5052774;28;20436;-74
2023/04/13 10:18:00;;;;;;;10.25;7.97;;;;;;;12.28;87.23;98557.53;5052580;28;20376;-74
2023/04/13 10:20:27;;;;;;;10.32;7.43;;;;;;;12.16;87.26;98539.16;5052435;28;20098;-74
2023/04/13 10:22:53;;;;;;;11.55;8.20;;;;;;;12.11;87.14;98532.59;5052535;28;20070;-74
2023/04/13 10:25:18;;;;;;;22.52;12.80;;;;;;;12.03;87.36;98527.91;5052552;28;20488;-74
2023/04/13 10:27:55;;;;;;;12.43;8.82;;;;;;;12.09;86.96;98539.69;5052555;28;20103;-74
2023/04/13 10:30:21;;;;;;;11.25;7.47;;;;;;;12.12;86.74;98542.09;5052430;28;20055;-74
2023/04/13 10:32:47;;;;;;;8.82;6.50;;;;;;;12.08;86.54;98544.09;5052523;28;20123;-74
2023/04/13 10:35:14;;;;;;;7.38;5.88;;;;;;;12.04;86.58;98542.63;5036964;28;20113;-75
2023/04/13 10:37:41;;;;;;;5.82;4.80;;;;;;;11.95;86.70;98538.06;5030038;28;20033;-74
2023/04/13 10:40:09;;;;;;;7.07;4.95;;;;;;;12.07;86.33;98563.31;5032467;28;20029;-75
2023/04/13 10:42:52;;;;;;;6.68;4.75;;;;;;;12.06;86.60;98571.25;5031847;28;20018;-74
2023/04/13 10:45:26;;;;;;;8.63;5.88;;;;;;;11.97;87.09;98551.84;5032099;28;20026;-74
2023/04/13 10:47:53;;;;;;;10.07;6.40;;;;;;;12.09;87.86;98574.44;5032559;28;20030;-75
2023/04/13 10:50:21;;;;;;;7.25;6.15;;;;;;;12.02;88.27;98557.56;5032122;28;20033;-74
2023/04/13 10:52:56;;;;;;;7.63;6.40;;;;;;;12.08;88.78;98570.19;5032247;28;20030;-74
2023/04/13 10:55:23;;;;;;;7.10;5.30;;;;;;;12.11;88.85;98575.19;5031945;28;20112;-74
2023/04/13 10:57:49;;;;;;;7.20;4.63;;;;;;;11.90;88.02;98542.78;5031995;28;20021;-74
2023/04/13 11:00:20;;;;;;;6.57;5.47;;;;;;;12.12;87.29;98595.13;5031670;28;20080;-75
2023/04/13 11:02:48;;;;;;;4.82;4.32;;;;;;;12.05;86.80;98578.25;5031938;28;20068;-75
2023/04/13 11:05:16;;;;;;;5.00;4.50;;;;;;;12.17;86.72;98600.03;5032004;28;20064;-75
2023/04/13 11:07:44;;;;;;;5.25;4.75;;;;;;;12.17;87.32;98589.59;5031540;28;20025;-74
2023/04/13 11:10:11;;;;;;;5.93;4.85;;;;;;;12.24;86.53;98596.06;5031444;28;20033;-75
2023/04/13 11:12:56;;;;;;;5.90;4.55;;;;;;;12.32;86.47;98601.56;5031347;28;20028;-75
2023/04/13 11:15:25;;;;;;;4.55;4.00;;;;;;;12.23;86.33;98574.34;5038791;28;20502;-75
2023/04/13 11:17:54;;;;;;;5.55;4.50;;;;;;;12.28;87.03;98583.63;5040257;28;20021;-75
2023/04/13 11:20:33;;;;;;;7.50;4.75;;;;;;;12.38;87.31;98606.34;5047707;28;20067;-75
2023/04/13 11:23:02;;;;;;;7.32;5.03;;;;;;;12.33;87.28;98610.22;5046077;28;20087;-75
2023/04/13 11:25:28;;;;;;;6.93;4.57;;;;;;;12.28;87.50;98607.13;5050882;28;20028;-74